Avon, Mississippi
Current Conditions -  °F | °C
As of 2:53 PM on Sunday 23 Nov 2014 (Local Time) from KGLH Reporting Station
Overcast Overcast  
Wind Chill: 64°   Ceiling: 1200
Heat Index: 64°   Visibility: 10mi
Dew Point: 60°   Wind: 16mph
Humidity: 87%   Direction: 230°SW
Pressure: 29.42"   Gusts: NA
Location:  33.23°N, 91.05°W
Report Text: KGLH 232053Z AUTO 23014KT 10SM BKN012 BKN018 OVC029 18/16 A2942 RMK AO2 SLP970 P0002 60002 T01780156 53016 $
Loading
Personal Weather Stations






























Interactive Weather Map New forecast layout! Learn more

10-Day Weather Forecast

Advertisements
Track Severe Weather on mobile